Time;durP1;ratioP1;P1;durP2;ratioP2;P2;SDS_P1;SDS_P2;PMS_P1;PMS_P2;Temp;Humidity;BMP_temperature;BMP_pressure;BME280_temperature;BME280_humidity;BME280_pressure;Samples;Min_cycle;Max_cycle;Signal;HPM_P1;HPM_P2
2022/07/15 00:02:10;;;;;;;3.33;1.30;;;;;;;23.57;50.59;98326.38;5027785;28;20029;-68
2022/07/15 00:04:36;;;;;;;2.00;1.35;;;;;;;23.57;50.60;98326.38;5003841;28;20026;-69
2022/07/15 00:07:03;;;;;;;4.57;1.50;;;;;;;23.56;50.04;98316.63;5016794;28;20048;-69
2022/07/15 00:12:13;;;;;;;1.65;1.25;;;;;;;23.46;50.28;98329.91;5029295;28;20031;-70
2022/07/15 00:14:39;;;;;;;3.17;1.42;;;;;;;23.45;49.94;98323.66;5046340;28;20057;-69
2022/07/15 00:17:06;;;;;;;3.25;1.35;;;;;;;23.51;50.10;98321.09;5035789;28;20046;-69
2022/07/15 00:19:33;;;;;;;5.30;1.50;;;;;;;23.53;49.83;98325.19;5047097;28;20080;-72
2022/07/15 00:21:58;;;;;;;3.38;1.40;;;;;;;23.53;49.83;98321.66;5045450;28;20036;-68
2022/07/15 00:24:24;;;;;;;4.28;1.10;;;;;;;23.59;49.68;98321.56;5037525;28;20142;-69
2022/07/15 00:26:50;;;;;;;2.30;1.10;;;;;;;23.55;49.92;98322.25;5026575;28;20052;-69
2022/07/15 00:29:15;;;;;;;2.45;1.40;;;;;;;23.54;49.66;98326.03;5025957;28;20088;-69
2022/07/15 00:31:41;;;;;;;2.72;1.10;;;;;;;23.47;49.92;98332.34;5026315;28;20022;-68
2022/07/15 00:34:06;;;;;;;2.45;1.30;;;;;;;23.46;49.94;98327.19;5025563;28;20129;-68
2022/07/15 00:36:32;;;;;;;2.15;1.10;;;;;;;23.46;49.96;98324.50;5027127;28;20017;-68
2022/07/15 00:38:57;;;;;;;5.65;1.50;;;;;;;23.42;50.06;98324.16;5038737;28;20056;-68
2022/07/15 00:41:23;;;;;;;2.40;1.30;;;;;;;23.42;49.93;98331.41;5046727;28;20044;-67
2022/07/15 00:43:49;;;;;;;1.95;1.20;;;;;;;23.49;50.06;98323.19;5037712;28;20038;-68
2022/07/15 00:46:23;;;;;;;1.80;1.48;;;;;;;23.52;49.74;98326.25;5027022;28;20045;-68
2022/07/15 00:48:49;;;;;;;3.78;1.55;;;;;;;23.45;49.82;98325.53;5026512;28;20117;-68
2022/07/15 00:51:15;;;;;;;1.90;1.27;;;;;;;23.46;50.16;98329.91;5026931;28;20037;-68
2022/07/15 00:53:42;;;;;;;2.63;1.35;;;;;;;23.48;49.87;98330.47;5025862;28;20278;-68
2022/07/15 00:56:09;;;;;;;2.38;1.20;;;;;;;23.48;50.09;98325.09;5007159;28;20042;-68
2022/07/15 00:58:42;;;;;;;2.17;1.13;;;;;;;23.49;49.80;98326.72;5007082;28;20073;-67
2022/07/15 01:01:08;;;;;;;1.95;1.10;;;;;;;23.46;49.88;98324.50;5007140;28;20030;-68
2022/07/15 01:03:34;;;;;;;2.72;1.40;;;;;;;23.39;50.06;98319.22;5008290;28;20084;-67
2022/07/15 01:05:59;;;;;;;3.80;1.40;;;;;;;23.49;49.98;98332.13;5024805;28;20044;-68
2022/07/15 01:08:25;;;;;;;2.15;1.20;;;;;;;23.52;49.80;98337.06;5026483;28;20189;-68
2022/07/15 01:10:52;;;;;;;1.90;1.33;;;;;;;23.40;50.24;98345.16;5026689;28;20057;-68
2022/07/15 01:13:19;;;;;;;1.27;0.93;;;;;;;23.27;50.44;98348.88;5026606;28;20046;-68
2022/07/15 01:15:46;;;;;;;2.03;1.10;;;;;;;23.13;50.75;98361.75;5010405;28;20125;-68
2022/07/15 01:18:11;;;;;;;2.20;1.25;;;;;;;23.11;50.83;98363.03;5025744;28;20151;-68
2022/07/15 01:20:46;;;;;;;1.60;1.05;;;;;;;23.11;50.98;98368.41;5026089;28;20036;-68
2022/07/15 01:23:12;;;;;;;3.38;1.45;;;;;;;23.16;50.97;98365.84;5026214;28;20053;-69
2022/07/15 01:25:39;;;;;;;3.17;1.23;;;;;;;23.09;51.01;98365.97;5026496;28;20034;-68
2022/07/15 01:28:05;;;;;;;4.78;1.20;;;;;;;23.10;51.03;98366.78;5012395;28;20027;-68
2022/07/15 01:30:31;;;;;;;2.63;1.23;;;;;;;23.17;50.95;98372.91;5006918;28;20105;-69
2022/07/15 01:32:56;;;;;;;5.00;1.88;;;;;;;23.23;50.68;98368.47;5028309;28;20029;-69
2022/07/15 01:35:22;;;;;;;6.70;1.13;;;;;;;23.25;50.80;98379.88;5024942;28;20034;-69
2022/07/15 01:37:47;;;;;;;2.17;1.10;;;;;;;23.26;50.83;98381.50;5026349;28;20026;-69
2022/07/15 01:40:13;;;;;;;2.03;1.30;;;;;;;23.28;50.59;98390.19;5029406;28;20076;-69
2022/07/15 01:42:39;;;;;;;1.33;1.20;;;;;;;23.27;50.44;98386.66;5030065;28;20041;-69
2022/07/15 01:45:06;;;;;;;4.82;2.00;;;;;;;23.37;50.50;98388.81;5030158;28;20034;-68
2022/07/15 01:47:34;;;;;;;1.75;1.10;;;;;;;23.43;50.13;98387.88;5030056;28;20049;-69
2022/07/15 01:50:00;;;;;;;3.05;0.90;;;;;;;23.47;50.05;98394.44;5029936;28;20191;-69
2022/07/15 01:52:25;;;;;;;2.58;1.42;;;;;;;23.50;49.84;98382.38;5029445;28;20045;-69
2022/07/15 01:54:51;;;;;;;5.20;1.80;;;;;;;23.44;50.47;98386.00;5030058;28;20029;-69
2022/07/15 01:57:17;;;;;;;2.17;1.15;;;;;;;23.44;50.33;98378.72;5029844;28;20029;-69
2022/07/15 01:59:43;;;;;;;4.18;1.13;;;;;;;23.40;50.56;98374.84;5029897;28;20025;-69
2022/07/15 02:02:08;;;;;;;2.63;1.10;;;;;;;23.46;50.06;98376.59;5030004;28;20029;-69
2022/07/15 02:04:34;;;;;;;1.90;1.00;;;;;;;23.47;50.21;98377.44;5017180;28;20147;-69
2022/07/15 02:06:59;;;;;;;2.45;1.10;;;;;;;23.44;50.34;98388.69;5010098;28;20093;-69
2022/07/15 02:09:25;;;;;;;2.15;1.10;;;;;;;23.35;50.51;98382.81;5010108;28;20076;-69
2022/07/15 02:11:51;;;;;;;5.10;1.10;;;;;;;23.36;50.32;98386.34;5012466;28;20045;-71
2022/07/15 02:14:16;;;;;;;1.45;1.00;;;;;;;23.30;50.41;98388.91;5025392;28;20069;-70
2022/07/15 02:16:42;;;;;;;2.33;1.10;;;;;;;23.27;50.11;98386.66;5021326;28;20041;-70
2022/07/15 02:19:08;;;;;;;1.90;1.00;;;;;;;23.37;50.33;98398.78;5029575;28;20054;-70
2022/07/15 02:21:34;;;;;;;1.83;1.10;;;;;;;23.39;50.32;98405.59;5029405;28;20021;-69
2022/07/15 02:24:00;;;;;;;2.10;1.48;;;;;;;23.35;50.03;98399.00;5028972;28;20041;-69
2022/07/15 02:26:26;;;;;;;2.53;1.10;;;;;;;23.31;50.05;98411.31;5029734;28;20033;-70
2022/07/15 02:28:51;;;;;;;1.70;1.00;;;;;;;23.28;50.10;98407.19;5028773;28;20080;-69
2022/07/15 02:31:17;;;;;;;1.77;1.10;;;;;;;23.25;50.10;98406.84;5029328;28;20057;-69
2022/07/15 02:33:42;;;;;;;2.40;1.20;;;;;;;23.25;49.96;98398.75;5029085;28;20250;-70
2022/07/15 02:36:09;;;;;;;2.20;1.13;;;;;;;23.25;49.84;98401.44;5029172;28;20041;-69
2022/07/15 02:38:35;;;;;;;1.52;0.90;;;;;;;23.24;50.02;98397.09;5029090;28;20270;-69
2022/07/15 02:41:01;;;;;;;3.00;1.13;;;;;;;23.20;49.99;98398.59;5029067;28;20026;-69
2022/07/15 02:43:26;;;;;;;2.95;1.20;;;;;;;23.16;50.18;98398.22;5029186;28;20100;-69
2022/07/15 02:45:52;;;;;;;2.15;1.20;;;;;;;23.05;50.00;98405.25;5028916;28;20030;-69
2022/07/15 02:48:17;;;;;;;3.17;1.33;;;;;;;23.04;50.28;98400.09;5028496;28;20026;-70
2022/07/15 02:50:43;;;;;;;1.50;0.93;;;;;;;23.14;49.92;98411.97;5028715;28;20034;-69
2022/07/15 02:53:08;;;;;;;1.85;1.23;;;;;;;23.22;49.72;98407.31;5028669;28;20057;-69
2022/07/15 02:55:34;;;;;;;1.77;1.00;;;;;;;23.23;49.87;98400.84;5028878;28;20029;-70
2022/07/15 02:57:59;;;;;;;1.45;0.95;;;;;;;23.28;49.48;98406.41;5028399;28;20037;-69
2022/07/15 03:00:25;;;;;;;2.33;0.80;;;;;;;23.25;49.42;98401.44;5028837;28;20096;-69
2022/07/15 03:02:51;;;;;;;5.28;1.05;;;;;;;23.25;49.50;98404.16;5029433;28;20061;-69
2022/07/15 03:05:17;;;;;;;1.65;1.05;;;;;;;23.33;49.43;98408.41;5028474;28;20021;-69
2022/07/15 03:07:43;;;;;;;4.72;1.33;;;;;;;23.38;49.39;98401.25;5028398;28;20238;-68
2022/07/15 03:10:10;;;;;;;2.10;1.00;;;;;;;23.39;49.28;98396.66;5027624;28;20041;-69
2022/07/15 03:12:35;;;;;;;1.58;1.10;;;;;;;23.45;49.18;98420.84;5027894;28;20033;-69
2022/07/15 03:15:02;;;;;;;1.70;0.70;;;;;;;23.59;48.65;98420.66;5028046;28;20034;-69
2022/07/15 03:17:27;;;;;;;1.95;0.90;;;;;;;23.75;48.49;98429.91;5028263;28;20065;-69
2022/07/15 03:19:55;;;;;;;2.08;0.85;;;;;;;23.93;48.47;98432.50;5028495;28;20034;-69
2022/07/15 03:22:25;;;;;;;1.55;1.00;;;;;;;23.97;47.92;98435.59;5026149;28;20030;-69
2022/07/15 03:24:50;;;;;;;1.63;0.98;;;;;;;23.92;48.41;98440.84;5027101;28;20216;-69
2022/07/15 03:27:17;;;;;;;2.35;1.35;;;;;;;23.80;48.40;98442.72;5027808;28;20018;-69
2022/07/15 03:29:43;;;;;;;2.60;1.25;;;;;;;23.73;48.51;98440.13;5028197;28;20041;-69
2022/07/15 03:32:10;;;;;;;2.83;1.15;;;;;;;23.69;48.71;98433.53;5028073;28;20231;-69
2022/07/15 03:34:36;;;;;;;2.72;1.00;;;;;;;23.67;48.50;98441.06;5027453;28;20045;-69
2022/07/15 03:37:02;;;;;;;1.83;1.30;;;;;;;23.60;48.95;98436.59;5027776;28;21274;-69
2022/07/15 03:39:27;;;;;;;1.85;1.00;;;;;;;23.65;48.80;98437.78;5027893;28;20037;-68
2022/07/15 03:41:53;;;;;;;2.90;1.10;;;;;;;23.70;48.41;98446.81;5027515;28;20143;-70
2022/07/15 03:44:19;;;;;;;1.70;0.80;;;;;;;23.86;48.43;98441.78;5027931;28;20053;-70
2022/07/15 03:46:47;;;;;;;1.65;0.85;;;;;;;23.89;48.23;98452.94;5027571;28;20093;-70
2022/07/15 03:49:13;;;;;;;2.15;1.15;;;;;;;23.91;47.93;98456.22;5027374;28;20029;-70
2022/07/15 03:51:39;;;;;;;1.58;1.23;;;;;;;23.87;48.30;98449.66;5027746;28;20230;-70
2022/07/15 03:54:05;;;;;;;1.98;0.93;;;;;;;23.86;48.47;98449.88;5013095;28;20077;-70
2022/07/15 03:56:31;;;;;;;2.15;1.20;;;;;;;23.88;48.15;98447.78;5011014;28;20037;-71
2022/07/15 03:58:57;;;;;;;2.20;1.00;;;;;;;23.89;48.26;98442.13;5027662;28;20057;-71
2022/07/15 04:01:23;;;;;;;2.90;1.05;;;;;;;23.91;47.89;98455.41;5027070;28;20038;-70
2022/07/15 04:03:50;;;;;;;1.83;1.02;;;;;;;23.92;48.08;98457.03;5027755;28;20071;-71
2022/07/15 04:06:16;;;;;;;1.85;1.02;;;;;;;23.97;47.86;98454.50;5027628;28;20030;-71
2022/07/15 04:08:42;;;;;;;3.75;0.95;;;;;;;24.04;47.67;98462.47;5026354;28;20159;-70
2022/07/15 04:11:08;;;;;;;4.95;0.90;;;;;;;24.04;47.62;98463.28;5027258;28;20029;-70
2022/07/15 04:13:33;;;;;;;3.78;1.10;;;;;;;24.02;48.08;98453.78;5027287;28;20056;-71
2022/07/15 04:15:59;;;;;;;3.30;1.20;;;;;;;23.98;48.27;98458.84;5026962;28;20042;-70
2022/07/15 04:18:25;;;;;;;2.28;1.17;;;;;;;23.98;47.80;98464.25;5028370;28;20030;-71
2022/07/15 04:20:50;;;;;;;1.67;1.10;;;;;;;23.99;47.88;98460.50;5027507;28;20037;-70
2022/07/15 04:23:16;;;;;;;3.53;1.10;;;;;;;24.03;47.89;98466.25;5026940;28;20140;-70
2022/07/15 04:25:42;;;;;;;1.75;0.95;;;;;;;24.04;47.93;98476.81;5027239;28;20072;-71
2022/07/15 04:28:07;;;;;;;3.70;1.23;;;;;;;24.03;47.77;98485.16;5026898;28;20036;-71
2022/07/15 04:30:33;;;;;;;2.53;0.68;;;;;;;24.01;48.28;98485.41;5027169;28;20049;-71
2022/07/15 04:32:59;;;;;;;3.20;0.93;;;;;;;24.12;47.96;98489.13;5026888;28;20033;-70
2022/07/15 04:35:24;;;;;;;1.70;1.08;;;;;;;24.27;47.50;98491.38;5026948;28;20036;-70
2022/07/15 04:37:50;;;;;;;2.70;1.15;;;;;;;24.47;47.08;98496.41;5026288;28;20042;-70
2022/07/15 04:40:16;;;;;;;2.25;1.20;;;;;;;24.65;46.81;98500.81;5027002;28;20036;-70
2022/07/15 04:42:41;;;;;;;5.25;1.20;;;;;;;24.90;46.17;98505.16;5018609;28;20045;-70
2022/07/15 04:45:07;;;;;;;2.88;1.30;;;;;;;25.27;45.57;98517.50;5007593;28;20053;-70
2022/07/15 04:47:32;;;;;;;1.83;1.20;;;;;;;25.62;44.76;98502.16;5015683;28;20038;-71
2022/07/15 04:52:44;;;;;;;5.50;1.00;;;;;;;26.41;43.40;98519.38;5026819;28;20183;-71
2022/07/15 04:55:10;;;;;;;6.35;1.40;;;;;;;26.69;42.95;98521.09;5026771;28;20033;-70
2022/07/15 04:57:35;;;;;;;3.05;1.50;;;;;;;26.96;42.73;98521.19;5026396;28;20029;-71
2022/07/15 05:00:01;;;;;;;2.33;1.20;;;;;;;27.14;42.31;98529.25;5026619;28;20254;-70
2022/07/15 05:02:26;;;;;;;3.85;1.35;;;;;;;27.31;41.98;98521.84;5013483;28;20093;-71
2022/07/15 05:04:52;;;;;;;2.05;1.00;;;;;;;27.49;41.34;98525.31;5012854;28;20054;-72
2022/07/15 05:07:17;;;;;;;4.72;1.17;;;;;;;27.54;41.30;98525.38;5010156;28;20022;-72
2022/07/15 05:09:43;;;;;;;3.33;1.50;;;;;;;27.56;41.33;98523.22;5044500;28;20104;-71
2022/07/15 05:12:08;;;;;;;4.45;0.80;;;;;;;27.61;41.20;98520.53;5025990;28;20061;-71
2022/07/15 05:14:34;;;;;;;2.47;0.95;;;;;;;27.72;41.09;98516.00;5023875;28;20044;-71
2022/07/15 05:17:00;;;;;;;3.40;1.33;;;;;;;27.86;40.64;98495.47;5024304;28;20062;-72
2022/07/15 05:19:26;;;;;;;3.33;1.00;;;;;;;27.93;40.72;98491.72;5044314;28;20089;-72
2022/07/15 05:21:51;;;;;;;3.13;0.75;;;;;;;28.01;40.40;98491.22;5029869;28;20030;-72
2022/07/15 05:24:18;;;;;;;2.00;0.98;;;;;;;28.02;40.42;98487.41;5030460;28;20097;-71
2022/07/15 05:26:44;;;;;;;2.45;0.65;;;;;;;28.12;39.99;98483.97;5029485;28;20057;-71
2022/07/15 05:29:09;;;;;;;3.58;1.10;;;;;;;28.17;39.97;98479.41;5029989;28;20054;-71
2022/07/15 05:31:35;;;;;;;1.50;0.90;;;;;;;28.16;39.99;98483.19;5030321;28;20037;-71
2022/07/15 05:34:00;;;;;;;3.38;0.75;;;;;;;28.16;39.87;98487.81;5030221;28;20053;-71
2022/07/15 05:36:26;;;;;;;1.38;0.70;;;;;;;28.13;39.68;98488.34;5030327;28;20120;-71
2022/07/15 05:38:52;;;;;;;3.40;0.70;;;;;;;28.13;40.08;98483.72;5046037;28;20135;-71
2022/07/15 05:41:18;;;;;;;4.85;0.80;;;;;;;28.25;39.81;98477.25;5050300;28;20025;-71
2022/07/15 05:43:43;;;;;;;3.40;1.10;;;;;;;28.30;39.72;98483.56;5050092;28;20214;-71
2022/07/15 05:46:09;;;;;;;3.50;1.10;;;;;;;28.32;39.66;98483.28;5049886;28;20052;-71
2022/07/15 05:48:35;;;;;;;3.08;0.77;;;;;;;28.21;39.76;98489.75;5049845;28;20029;-71
2022/07/15 05:51:00;;;;;;;2.17;0.63;;;;;;;28.10;39.75;98495.09;5038229;28;20034;-71
2022/07/15 05:53:26;;;;;;;1.02;0.80;;;;;;;27.95;39.92;98493.09;5030411;28;20034;-72
2022/07/15 05:55:52;;;;;;;2.88;0.90;;;;;;;27.89;39.95;98499.56;5029997;28;20045;-71
2022/07/15 05:58:18;;;;;;;5.03;0.90;;;;;;;27.91;39.84;98505.56;5029804;28;20032;-72
2022/07/15 06:00:44;;;;;;;3.63;0.80;;;;;;;27.92;39.97;98504.47;5029511;28;20200;-71
2022/07/15 06:03:10;;;;;;;2.75;1.20;;;;;;;27.91;39.64;98497.41;5028180;28;20100;-71
2022/07/15 06:05:35;;;;;;;1.67;0.82;;;;;;;27.92;40.04;98495.50;5010181;28;20124;-71
2022/07/15 06:08:01;;;;;;;3.00;0.88;;;;;;;27.94;39.90;98496.06;5009958;28;20093;-70
2022/07/15 06:10:26;;;;;;;1.80;0.82;;;;;;;27.94;39.30;98490.63;5026936;28;20046;-70
2022/07/15 06:12:55;;;;;;;2.92;0.70;;;;;;;27.94;39.67;98486.00;5027950;28;20221;-70
2022/07/15 06:15:21;;;;;;;0.93;0.70;;;;;;;27.91;39.63;98486.53;5025480;28;20095;-70
2022/07/15 06:17:46;;;;;;;1.88;0.80;;;;;;;27.85;39.28;98487.59;5029421;28;20143;-70
2022/07/15 06:20:12;;;;;;;2.92;1.05;;;;;;;27.67;39.44;98478.75;5029793;28;20052;-70
2022/07/15 06:22:38;;;;;;;4.88;1.63;;;;;;;27.34;40.03;98477.88;5028001;28;20068;-70
2022/07/15 06:25:04;;;;;;;4.75;2.63;;;;;;;27.18;40.19;98484.22;5028814;28;20054;-70
2022/07/15 06:27:30;;;;;;;8.23;2.67;;;;;;;27.03;40.79;98485.72;5028808;28;20041;-70
2022/07/15 06:29:57;;;;;;;6.82;5.82;;;;;;;26.90;41.13;98484.22;5017140;28;20227;-71
2022/07/15 06:32:23;;;;;;;14.70;12.00;;;;;;;26.82;40.89;98486.56;5009546;28;20030;-71
2022/07/15 06:34:48;;;;;;;30.40;26.30;;;;;;;26.71;41.35;98472.03;5009567;28;20308;-71
2022/07/15 06:37:14;;;;;;;30.25;26.17;;;;;;;26.63;41.74;98476.00;5009385;28;20026;-70
2022/07/15 06:39:39;;;;;;;30.75;26.17;;;;;;;26.56;41.65;98476.19;5021891;28;20018;-71
2022/07/15 06:42:05;;;;;;;43.00;33.90;;;;;;;26.54;41.92;98483.75;5027120;28;20093;-70
2022/07/15 06:44:31;;;;;;;22.70;18.75;;;;;;;26.53;41.73;98476.69;5009510;28;20046;-71
2022/07/15 06:46:57;;;;;;;43.15;36.67;;;;;;;26.56;42.15;98483.50;5009158;28;20031;-71
2022/07/15 06:49:23;;;;;;;17.50;13.07;;;;;;;26.56;42.05;98487.03;5026179;28;20026;-71
2022/07/15 06:51:48;;;;;;;17.10;14.10;;;;;;;26.56;41.87;98478.91;5028625;28;20221;-71
2022/07/15 06:54:14;;;;;;;22.75;19.20;;;;;;;26.46;42.26;98487.72;5012455;28;20038;-71
2022/07/15 06:56:40;;;;;;;8.43;6.93;;;;;;;26.38;41.95;98495.47;5009144;28;20030;-71
2022/07/15 06:59:05;;;;;;;16.92;13.25;;;;;;;26.31;42.25;98503.78;5025804;28;20034;-71
2022/07/15 07:01:32;;;;;;;10.18;9.10;;;;;;;26.31;42.16;98510.03;5027668;28;20095;-71
2022/07/15 07:03:58;;;;;;;10.27;6.45;;;;;;;26.26;42.12;98509.13;5028694;28;20223;-72
2022/07/15 07:06:24;;;;;;;13.48;9.15;;;;;;;26.16;42.42;98507.91;5028670;28;20036;-71
2022/07/15 07:08:51;;;;;;;11.07;9.00;;;;;;;26.18;42.76;98508.50;5018802;28;20125;-71
2022/07/15 07:11:17;;;;;;;12.60;6.28;;;;;;;26.22;42.90;98500.66;5008913;28;20022;-72
2022/07/15 07:13:43;;;;;;;10.73;8.43;;;;;;;26.27;42.69;98508.06;5008650;28;20034;-72
2022/07/15 07:16:08;;;;;;;6.95;3.38;;;;;;;26.30;41.88;98507.56;5008601;28;20058;-71
2022/07/15 07:18:34;;;;;;;6.00;4.05;;;;;;;26.20;41.78;98508.22;5022730;28;20103;-71
2022/07/15 07:21:01;;;;;;;5.55;4.25;;;;;;;26.11;42.14;98510.53;5028137;28;20057;-72
2022/07/15 07:23:27;;;;;;;5.85;3.00;;;;;;;26.04;42.12;98504.44;5028264;28;20030;-71
2022/07/15 07:25:53;;;;;;;3.20;2.30;;;;;;;26.00;42.33;98509.56;5028261;28;20040;-71
2022/07/15 07:28:19;;;;;;;3.85;2.53;;;;;;;25.98;42.65;98517.09;5027084;28;20042;-70
2022/07/15 07:30:46;;;;;;;3.88;2.40;;;;;;;26.02;42.71;98526.41;5028176;28;20080;-71
2022/07/15 07:33:11;;;;;;;5.90;2.72;;;;;;;26.08;42.75;98527.28;5027932;28;20034;-70
2022/07/15 07:35:37;;;;;;;3.83;2.10;;;;;;;26.10;42.57;98524.31;5028123;28;20037;-70
2022/07/15 07:38:03;;;;;;;5.78;2.58;;;;;;;26.13;42.37;98530.09;5025315;28;20014;-70
2022/07/15 07:40:29;;;;;;;3.35;1.98;;;;;;;26.14;42.42;98523.59;5028062;28;20041;-69
2022/07/15 07:42:56;;;;;;;3.28;1.92;;;;;;;26.15;42.34;98536.09;5025238;28;20041;-70
2022/07/15 07:45:22;;;;;;;3.72;1.98;;;;;;;26.20;42.39;98544.31;5027880;28;20025;-71
2022/07/15 07:47:47;;;;;;;5.22;1.60;;;;;;;26.15;41.38;98535.28;5021092;28;20018;-71
2022/07/15 07:50:13;;;;;;;3.75;1.60;;;;;;;26.07;41.31;98538.38;5025177;28;20048;-71
2022/07/15 07:52:38;;;;;;;5.63;1.80;;;;;;;26.04;41.24;98539.69;5027547;28;20030;-71
2022/07/15 07:55:04;;;;;;;4.00;1.40;;;;;;;26.08;41.03;98526.44;5027993;28;20117;-71
2022/07/15 07:57:30;;;;;;;1.73;1.17;;;;;;;26.10;40.88;98525.13;5023112;28;20030;-71
2022/07/15 07:59:55;;;;;;;2.05;1.85;;;;;;;26.11;41.14;98521.38;5023876;28;20069;-71
2022/07/15 08:02:21;;;;;;;3.55;1.20;;;;;;;26.11;40.49;98517.88;5025692;28;20022;-73
2022/07/15 08:04:46;;;;;;;2.33;1.27;;;;;;;26.12;40.55;98522.22;5013685;28;20061;-71
2022/07/15 08:07:12;;;;;;;1.65;1.27;;;;;;;26.13;40.34;98516.53;5010636;28;20022;-71
2022/07/15 08:09:37;;;;;;;4.03;1.27;;;;;;;26.15;40.35;98511.69;5027416;28;20137;-72
2022/07/15 08:12:03;;;;;;;2.45;1.40;;;;;;;26.20;40.00;98514.50;5027302;28;20100;-71
2022/07/15 08:14:29;;;;;;;1.92;1.30;;;;;;;26.23;39.89;98504.22;5026051;28;20194;-72
2022/07/15 08:16:54;;;;;;;4.43;1.25;;;;;;;26.24;40.02;98498.53;5007313;28;20074;-71
2022/07/15 08:19:20;;;;;;;2.40;1.38;;;;;;;26.26;39.84;98501.81;5007720;28;20030;-72
2022/07/15 08:21:46;;;;;;;3.10;1.25;;;;;;;26.29;39.95;98514.88;5007873;28;20049;-71
2022/07/15 08:24:12;;;;;;;3.38;1.27;;;;;;;26.30;39.99;98535.50;5025118;28;20060;-72
2022/07/15 08:26:39;;;;;;;3.20;1.30;;;;;;;26.37;39.73;98535.34;5027167;28;20301;-72
2022/07/15 08:29:05;;;;;;;3.17;1.88;;;;;;;26.38;39.61;98534.28;5010557;28;20098;-72
2022/07/15 08:31:35;;;;;;;3.10;1.30;;;;;;;26.39;40.03;98538.63;5007344;28;20259;-72
2022/07/15 08:34:01;;;;;;;6.03;1.45;;;;;;;26.38;39.02;98549.69;5007382;28;20030;-71
2022/07/15 08:36:26;;;;;;;3.92;1.77;;;;;;;26.34;39.44;98542.06;5016157;28;20133;-71
2022/07/15 08:38:52;;;;;;;4.50;1.73;;;;;;;26.33;39.30;98543.13;5024994;28;20034;-71
2022/07/15 08:41:18;;;;;;;4.85;1.50;;;;;;;26.35;39.27;98541.00;5026991;28;20045;-71
2022/07/15 08:43:44;;;;;;;2.78;1.42;;;;;;;26.30;39.18;98540.09;5025548;28;20030;-71
2022/07/15 08:46:11;;;;;;;5.13;1.30;;;;;;;26.25;38.70;98551.69;5026931;28;20742;-71
2022/07/15 08:48:37;;;;;;;3.42;1.10;;;;;;;26.22;39.01;98557.59;5024705;28;20032;-71
2022/07/15 08:51:06;;;;;;;4.47;1.60;;;;;;;26.23;39.63;98556.53;5026198;28;20152;-72
2022/07/15 08:53:31;;;;;;;3.17;1.65;;;;;;;26.24;39.01;98563.59;5017366;28;20026;-72
2022/07/15 08:55:58;;;;;;;2.80;1.40;;;;;;;26.26;37.94;98556.06;5007268;28;20034;-72
2022/07/15 08:58:23;;;;;;;3.35;1.52;;;;;;;26.20;37.17;98568.72;5023529;28;20041;-73
2022/07/15 09:00:49;;;;;;;3.53;1.27;;;;;;;26.16;36.88;98569.47;5026349;28;20045;-72
2022/07/15 09:03:14;;;;;;;1.98;1.00;;;;;;;26.09;36.88;98574.19;5024043;28;20042;-71
2022/07/15 09:05:40;;;;;;;2.70;1.25;;;;;;;26.05;37.45;98565.72;5025584;28;20025;-70
2022/07/15 09:08:07;;;;;;;1.60;1.02;;;;;;;26.07;37.68;98581.72;5026283;28;20120;-70
2022/07/15 09:10:50;;;;;;;5.22;1.10;;;;;;;26.05;37.92;98577.38;5026488;28;20135;-70
2022/07/15 09:13:35;;;;;;;2.83;1.10;;;;;;;26.04;37.90;98578.44;5025375;28;20115;-70
2022/07/15 09:16:09;;;;;;;3.92;1.27;;;;;;;26.00;37.38;98569.19;5025955;28;20021;-71
2022/07/15 09:18:38;;;;;;;3.20;1.27;;;;;;;26.00;37.13;98577.31;5026205;28;20022;-71
2022/07/15 09:21:25;;;;;;;6.75;1.38;;;;;;;25.94;37.33;98572.88;5026555;28;20139;-70
2022/07/15 09:23:53;;;;;;;4.18;1.90;;;;;;;25.92;37.38;98576.91;5018358;28;20030;-69
2022/07/15 09:26:28;;;;;;;5.20;1.95;;;;;;;25.96;37.44;98578.84;5026499;28;20034;-72
2022/07/15 09:28:55;;;;;;;8.57;1.75;;;;;;;25.96;37.45;98584.28;5023253;28;20045;-74
2022/07/15 09:34:17;;;;;;;8.90;2.72;;;;;;;25.94;36.62;98578.28;5008618;28;20049;-71
2022/07/15 09:36:46;;;;;;;4.35;1.65;;;;;;;25.87;35.48;98569.50;5026285;28;20080;-71
2022/07/15 09:39:12;;;;;;;1.95;1.20;;;;;;;25.67;35.20;98578.91;5026330;28;20270;-71
2022/07/15 09:41:42;;;;;;;4.72;1.25;;;;;;;25.64;35.57;98581.28;5026169;28;20049;-71
2022/07/15 09:44:14;;;;;;;3.20;1.35;;;;;;;25.61;35.54;98574.44;5008005;28;20034;-71
2022/07/15 09:46:43;;;;;;;5.32;1.23;;;;;;;25.65;36.06;98583.75;5006923;28;20142;-70
2022/07/15 09:49:11;;;;;;;5.13;1.10;;;;;;;25.71;35.67;98581.94;5022344;28;20061;-71
2022/07/15 09:51:49;;;;;;;5.55;1.52;;;;;;;25.75;35.75;98559.53;5026226;28;20026;-71
2022/07/15 09:54:15;;;;;;;3.42;1.20;;;;;;;25.79;36.11;98573.44;5010061;28;20046;-71
2022/07/15 09:56:41;;;;;;;1.75;0.82;;;;;;;25.82;36.28;98578.34;4989692;28;20140;-70
2022/07/15 09:59:08;;;;;;;2.78;1.30;;;;;;;25.86;36.34;98562.44;5018734;28;20109;-70
2022/07/15 10:01:36;;;;;;;2.10;1.05;;;;;;;25.89;36.47;98578.19;5043895;28;20029;-70
2022/07/15 10:04:02;;;;;;;2.33;1.20;;;;;;;25.91;36.06;98581.47;5030142;28;20225;-71
2022/07/15 10:06:28;;;;;;;4.93;1.40;;;;;;;25.92;36.37;98582.31;5029860;28;20041;-70
2022/07/15 10:08:54;;;;;;;1.90;1.33;;;;;;;25.90;36.22;98580.66;5029993;28;20021;-71
2022/07/15 10:11:20;;;;;;;4.07;1.30;;;;;;;25.88;35.65;98582.00;5029701;28;20026;-71
2022/07/15 10:14:15;;;;;;;4.32;1.02;;;;;;;25.79;35.31;98589.69;5028885;28;20286;-71
2022/07/15 10:17:04;;;;;;;2.17;1.52;;;;;;;25.69;35.42;98587.63;5009636;28;20142;-71
2022/07/15 10:20:00;;;;;;;6.13;1.10;;;;;;;25.65;35.28;98588.34;5021520;28;20182;-70
2022/07/15 10:22:50;;;;;;;3.10;1.00;;;;;;;25.62;35.34;98580.72;5029077;28;20037;-71
2022/07/15 10:25:39;;;;;;;1.63;0.98;;;;;;;25.59;35.46;98580.13;5029194;28;20026;-71
2022/07/15 10:28:10;;;;;;;2.33;1.30;;;;;;;25.56;35.37;98580.59;5027905;28;20204;-71
2022/07/15 10:30:39;;;;;;;1.33;1.02;;;;;;;25.55;35.44;98578.16;5029429;28;20081;-70
2022/07/15 10:33:15;;;;;;;1.83;1.10;;;;;;;25.52;35.43;98576.72;5026775;28;20239;-70
2022/07/15 10:35:43;;;;;;;2.13;1.23;;;;;;;25.49;35.26;98574.53;5029139;28;20153;-71
2022/07/15 10:38:38;;;;;;;3.15;0.98;;;;;;;25.53;35.74;98585.69;5029371;28;20041;-71
2022/07/15 10:41:16;;;;;;;1.77;0.77;;;;;;;25.53;35.79;98569.44;5020599;28;20143;-70
2022/07/15 10:43:49;;;;;;;11.32;1.50;;;;;;;25.56;35.86;98572.47;5028124;28;20018;-70
2022/07/15 10:46:19;;;;;;;2.25;1.10;;;;;;;25.57;35.88;98576.03;5029091;28;20030;-70
2022/07/15 10:48:44;;;;;;;2.13;1.10;;;;;;;25.56;36.17;98586.03;5028270;28;20096;-70
2022/07/15 10:51:10;;;;;;;2.97;1.17;;;;;;;25.59;36.29;98588.25;5029176;28;20184;-70
2022/07/15 10:53:48;;;;;;;4.32;0.90;;;;;;;25.64;36.33;98597.53;5018822;28;20270;-70
2022/07/15 10:56:32;;;;;;;5.50;1.73;;;;;;;25.68;36.53;98604.09;5028726;28;20060;-70
2022/07/15 10:59:11;;;;;;;7.88;1.35;;;;;;;25.65;36.49;98610.84;5028890;28;20257;-70
2022/07/15 11:01:39;;;;;;;2.15;1.10;;;;;;;25.62;36.63;98607.78;5028546;28;20100;-70
2022/07/15 11:04:19;;;;;;;8.32;1.10;;;;;;;25.58;36.79;98600.16;5011225;28;20037;-70
2022/07/15 11:10:02;;;;;;;2.17;1.02;;;;;;;25.60;36.98;98597.19;5009296;28;20078;-72
2022/07/15 11:12:30;;;;;;;4.70;1.50;;;;;;;25.62;36.99;98600.47;5008722;28;20050;-71
2022/07/15 11:15:25;;;;;;;3.95;1.20;;;;;;;25.67;36.95;98603.28;5021058;28;20042;-70
2022/07/15 11:17:53;;;;;;;2.50;1.25;;;;;;;25.72;37.09;98602.56;5025813;28;20041;-70
2022/07/15 11:20:23;;;;;;;2.10;1.27;;;;;;;25.77;37.28;98605.38;5028491;28;20061;-70
2022/07/15 11:22:51;;;;;;;3.63;1.20;;;;;;;25.82;36.97;98596.50;5032044;28;20135;-71
2022/07/15 11:25:28;;;;;;;2.17;1.05;;;;;;;25.83;37.46;98603.56;5026814;28;20052;-70
2022/07/15 11:28:17;;;;;;;3.17;1.58;;;;;;;25.85;37.31;98604.16;5029022;28;20071;-72
2022/07/15 11:30:53;;;;;;;2.25;1.33;;;;;;;25.83;36.97;98601.66;5027432;28;20068;-71
2022/07/15 11:33:25;;;;;;;6.60;1.48;;;;;;;25.80;37.20;98610.31;5026532;28;20050;-71
2022/07/15 11:36:02;;;;;;;7.80;1.45;;;;;;;25.80;37.42;98604.88;5027437;28;20223;-70
2022/07/15 11:38:30;;;;;;;5.07;1.48;;;;;;;25.79;37.23;98607.81;5027880;28;20100;-71
2022/07/15 11:46:31;;;;;;;5.30;1.40;;;;;;;25.68;37.14;98614.94;5008301;28;20021;-72
2022/07/15 11:48:58;;;;;;;7.03;2.17;;;;;;;25.66;36.97;98627.94;5008263;28;20227;-71
2022/07/15 11:51:27;;;;;;;7.18;2.33;;;;;;;25.64;37.31;98614.59;5008471;28;20026;-72